createdAt,value
2017-03-31T00:00:55.467Z,0
2017-03-31T00:01:23.683Z,0
2017-03-31T00:02:35.516Z,0
2017-03-31T00:03:03.738Z,0
2017-03-31T00:07:15.340Z,0
2017-03-31T00:07:43.453Z,0
2017-03-31T00:11:55.290Z,0
2017-03-31T00:12:23.256Z,0
2017-03-31T00:13:35.130Z,0
2017-03-31T00:14:03.341Z,0
2017-03-31T00:16:15.195Z,0
2017-03-31T00:16:43.483Z,0
2017-03-31T00:17:11.674Z,0
2017-03-31T00:17:40.732Z,0
2017-03-31T00:20:15.005Z,0
2017-03-31T00:20:43.173Z,0
2017-03-31T00:22:54.953Z,0
2017-03-31T00:23:23.234Z,0
2017-03-31T00:23:51.517Z,0
2017-03-31T00:24:20.508Z,0
2017-03-31T00:27:54.861Z,0
2017-03-31T00:28:22.972Z,0
2017-03-31T00:34:34.657Z,0
2017-03-31T00:35:02.842Z,0
2017-03-31T00:39:14.583Z,0
2017-03-31T00:39:42.638Z,0
2017-03-31T00:40:11.443Z,0
2017-03-31T00:41:34.535Z,0
2017-03-31T00:42:02.755Z,0
2017-03-31T00:42:30.991Z,0
2017-03-31T00:42:59.933Z,0
2017-03-31T00:43:28.016Z,0
2017-03-31T00:43:56.904Z,0
2017-03-31T00:44:25.740Z,0
2017-03-31T00:46:54.224Z,0
2017-03-31T00:47:22.313Z,0
2017-03-31T00:47:51.311Z,0
2017-03-31T00:50:14.187Z,0
2017-03-31T00:50:42.272Z,0
2017-03-31T00:52:05.478Z,0
2017-03-31T00:56:34.169Z,0
2017-03-31T00:57:02.360Z,0
2017-03-31T00:57:30.622Z,0
2017-03-31T00:57:59.626Z,0
2017-03-31T00:59:34.079Z,0
2017-03-31T01:00:02.329Z,0
2017-03-31T01:00:30.546Z,0
2017-03-31T01:00:59.555Z,0
2017-03-31T01:01:27.523Z,0
2017-03-31T01:01:56.497Z,0
2017-03-31T01:05:13.947Z,0
2017-03-31T01:05:42.244Z,0
2017-03-31T01:08:53.889Z,0
2017-03-31T01:09:22.068Z,0
2017-03-31T01:09:50.206Z,0
2017-03-31T01:10:19.231Z,0
2017-03-31T01:10:47.427Z,0
2017-03-31T01:11:16.396Z,0
2017-03-31T01:12:33.827Z,0
2017-03-31T01:13:02.001Z,0
2017-03-31T01:13:30.985Z,0
2017-03-31T01:13:59.254Z,0
2017-03-31T01:14:28.196Z,0
2017-03-31T01:14:56.410Z,0
2017-03-31T01:15:25.364Z,0
2017-03-31T01:15:53.630Z,0
2017-03-31T01:16:21.771Z,0
2017-03-31T01:17:33.550Z,0
2017-03-31T01:18:01.831Z,0
2017-03-31T01:23:13.489Z,0
2017-03-31T01:23:41.801Z,0
2017-03-31T01:24:53.035Z,0
2017-03-31T01:25:21.352Z,0
2017-03-31T01:25:50.376Z,0
2017-03-31T01:26:18.668Z,0
2017-03-31T01:26:46.676Z,0
2017-03-31T01:27:14.828Z,0
2017-03-31T01:27:43.128Z,0
2017-03-31T01:28:11.210Z,0
2017-03-31T01:28:40.263Z,0
2017-03-31T01:31:03.335Z,0
2017-03-31T01:31:31.649Z,0
2017-03-31T01:31:59.800Z,0
2017-03-31T01:32:28.856Z,0
2017-03-31T01:32:57.240Z,0
2017-03-31T01:33:25.472Z,0
2017-03-31T01:33:54.502Z,0
2017-03-31T01:37:23.157Z,0
2017-03-31T01:37:51.257Z,0
2017-03-31T01:40:03.101Z,0
2017-03-31T01:40:31.199Z,0
2017-03-31T01:41:42.915Z,0
2017-03-31T01:42:11.239Z,0
2017-03-31T01:46:22.994Z,0
2017-03-31T01:46:51.170Z,0
2017-03-31T01:47:19.481Z,0
2017-03-31T01:47:48.505Z,0
2017-03-31T01:48:16.837Z,0
2017-03-31T01:48:45.044Z,0
2017-03-31T01:49:13.972Z,0
2017-03-31T01:50:42.842Z,0
2017-03-31T01:51:11.148Z,0
2017-03-31T01:54:22.766Z,0
2017-03-31T01:54:51.056Z,0
2017-03-31T01:55:19.030Z,0
2017-03-31T01:55:47.234Z,0
2017-03-31T01:56:15.239Z,0
2017-03-31T02:00:32.498Z,0
2017-03-31T02:02:00.550Z,0
2017-03-31T02:02:29.537Z,0
2017-03-31T02:03:52.126Z,0
2017-03-31T02:04:20.281Z,0
2017-03-31T02:04:49.335Z,0
2017-03-31T02:07:12.339Z,0
2017-03-31T02:07:40.621Z,0
2017-03-31T02:08:52.398Z,0
2017-03-31T02:09:20.637Z,0
2017-03-31T02:09:48.708Z,0
2017-03-31T02:10:16.746Z,0
2017-03-31T02:10:44.937Z,0
2017-03-31T02:11:12.988Z,0
2017-03-31T02:11:41.244Z,0
2017-03-31T02:12:09.517Z,0
2017-03-31T02:12:37.550Z,0
2017-03-31T02:13:05.574Z,0
2017-03-31T02:13:33.666Z,0
2017-03-31T02:14:01.947Z,0
2017-03-31T02:14:30.094Z,0
2017-03-31T02:14:58.928Z,0
2017-03-31T02:15:27.932Z,0
2017-03-31T02:17:02.245Z,0
2017-03-31T02:17:30.167Z,0
2017-03-31T02:19:42.155Z,0
2017-03-31T02:20:10.341Z,0
2017-03-31T02:20:38.537Z,0
2017-03-31T02:21:07.553Z,0
2017-03-31T02:24:41.910Z,0
2017-03-31T02:25:10.135Z,0
2017-03-31T02:27:21.843Z,0
2017-03-31T02:27:50.073Z,0
2017-03-31T02:30:01.892Z,0
2017-03-31T02:30:30.135Z,0
2017-03-31T02:33:41.934Z,0
2017-03-31T02:34:10.162Z,0
2017-03-31T02:34:38.341Z,0
2017-03-31T02:35:07.275Z,0
2017-03-31T02:35:35.348Z,0
2017-03-31T02:36:04.382Z,0
2017-03-31T02:36:32.652Z,0
2017-03-31T02:37:01.655Z,0
2017-03-31T02:37:29.801Z,0
2017-03-31T02:38:41.706Z,0
2017-03-31T02:39:09.837Z,0
2017-03-31T02:41:21.652Z,0
2017-03-31T02:41:49.879Z,0
2017-03-31T02:42:18.116Z,0
2017-03-31T02:42:47.158Z,0
2017-03-31T02:45:21.490Z,0
2017-03-31T02:45:49.770Z,0
2017-03-31T02:49:01.541Z,0
2017-03-31T02:49:29.779Z,0
2017-03-31T02:49:58.006Z,0
2017-03-31T02:51:21.164Z,0
2017-03-31T02:51:49.327Z,0
2017-03-31T02:52:18.322Z,0
2017-03-31T02:52:46.621Z,0
2017-03-31T02:53:15.567Z,0
2017-03-31T02:53:43.841Z,0
2017-03-31T02:57:01.106Z,0
2017-03-31T02:57:29.364Z,0
2017-03-31T02:58:41.098Z,0
2017-03-31T02:59:09.124Z,0
2017-03-31T02:59:38.164Z,0
2017-03-31T03:03:01.143Z,0
2017-03-31T03:03:29.299Z,0
2017-03-31T03:03:57.533Z,0
2017-03-31T03:04:25.595Z,0
2017-03-31T03:04:53.654Z,0
2017-03-31T03:05:21.819Z,0
2017-03-31T03:05:50.835Z,0
2017-03-31T03:06:19.006Z,0
2017-03-31T03:07:30.898Z,0
2017-03-31T03:07:59.053Z,0
2017-03-31T03:09:10.921Z,0
2017-03-31T03:09:39.093Z,0
2017-03-31T03:11:49.799Z,0
2017-03-31T03:12:18.024Z,0
2017-03-31T03:12:46.185Z,0
2017-03-31T03:13:14.386Z,0
2017-03-31T03:13:43.344Z,0
2017-03-31T03:15:00.381Z,0
2017-03-31T03:15:28.547Z,0
2017-03-31T03:15:57.470Z,0
2017-03-31T03:16:26.397Z,0
2017-03-31T03:18:00.724Z,0
2017-03-31T03:18:28.865Z,0
2017-03-31T03:21:40.491Z,0
2017-03-31T03:22:08.582Z,0
2017-03-31T03:22:37.483Z,0
2017-03-31T03:25:00.521Z,0
2017-03-31T03:25:28.696Z,0
2017-03-31T03:26:40.491Z,0
2017-03-31T03:27:08.608Z,0
2017-03-31T03:28:20.450Z,0
2017-03-31T03:28:48.672Z,0
2017-03-31T03:32:00.375Z,0
2017-03-31T03:32:28.617Z,0
2017-03-31T03:32:56.590Z,0
2017-03-31T03:33:24.764Z,0
2017-03-31T03:33:53.044Z,0
2017-03-31T03:34:21.182Z,0
2017-03-31T03:34:50.094Z,0
2017-03-31T03:35:18.353Z,0
2017-03-31T03:35:47.169Z,0
2017-03-31T03:38:10.184Z,0
2017-03-31T03:38:38.440Z,0
2017-03-31T03:41:50.167Z,0
2017-03-31T03:42:18.350Z,0
2017-03-31T03:42:46.481Z,0
2017-03-31T03:43:15.489Z,0
2017-03-31T03:43:43.561Z,0
2017-03-31T03:44:12.575Z,0
2017-03-31T03:47:30.053Z,0
2017-03-31T03:47:58.214Z,0
2017-03-31T03:51:09.886Z,0
2017-03-31T03:51:37.975Z,0
2017-03-31T03:52:49.831Z,0
2017-03-31T03:53:18.104Z,0
2017-03-31T03:57:29.667Z,0
2017-03-31T03:57:57.825Z,0
2017-03-31T03:59:09.695Z,0
2017-03-31T03:59:37.828Z,0
2017-03-31T04:03:49.564Z,0
2017-03-31T04:04:17.705Z,0
2017-03-31T04:06:29.814Z,0
2017-03-31T04:06:57.975Z,0
2017-03-31T04:07:26.049Z,0
2017-03-31T04:07:55.072Z,0
2017-03-31T04:11:29.134Z,0
2017-03-31T04:11:57.641Z,0
2017-03-31T04:14:09.354Z,0
2017-03-31T04:14:37.510Z,0
2017-03-31T04:18:49.195Z,0
2017-03-31T04:19:17.435Z,0
2017-03-31T04:23:29.082Z,0
2017-03-31T04:23:57.153Z,0
2017-03-31T04:25:09.020Z,0
2017-03-31T04:25:37.084Z,0
2017-03-31T04:26:06.016Z,0
2017-03-31T04:27:28.924Z,0
2017-03-31T04:27:57.176Z,0
2017-03-31T04:31:08.911Z,0
2017-03-31T04:31:37.139Z,0
2017-03-31T04:34:48.874Z,0
2017-03-31T04:35:17.017Z,0
2017-03-31T04:36:28.681Z,0
2017-03-31T04:36:56.941Z,0
2017-03-31T04:38:09.165Z,0
2017-03-31T04:39:37.429Z,0
2017-03-31T04:40:05.614Z,0
2017-03-31T04:41:28.559Z,0
2017-03-31T04:41:56.703Z,0
2017-03-31T04:43:56.315Z,0
2017-03-31T04:44:25.246Z,0
2017-03-31T04:44:54.260Z,0
2017-03-31T04:47:28.573Z,0
2017-03-31T04:47:56.790Z,0
2017-03-31T04:48:24.931Z,0
2017-03-31T04:48:52.902Z,0
2017-03-31T04:49:21.166Z,0
2017-03-31T04:49:49.414Z,0
2017-03-31T04:50:18.284Z,0
2017-03-31T04:50:46.261Z,0
2017-03-31T04:51:15.134Z,0
2017-03-31T04:51:43.885Z,0
2017-03-31T04:54:18.427Z,0
2017-03-31T04:54:46.636Z,0
2017-03-31T04:55:14.826Z,0
2017-03-31T04:55:43.771Z,0
2017-03-31T04:57:18.156Z,0
2017-03-31T04:57:46.370Z,0
2017-03-31T04:58:15.188Z,0
2017-03-31T05:00:38.151Z,0
2017-03-31T05:01:06.399Z,0
2017-03-31T05:03:18.193Z,0
2017-03-31T05:03:46.412Z,0
2017-03-31T05:04:14.557Z,0
2017-03-31T05:04:43.507Z,0
2017-03-31T05:07:18.040Z,0
2017-03-31T05:07:46.138Z,0
2017-03-31T05:08:15.243Z,0
2017-03-31T05:08:43.301Z,0
2017-03-31T05:09:11.482Z,0
2017-03-31T05:10:29.027Z,0
2017-03-31T05:11:57.947Z,0
2017-03-31T05:12:26.131Z,0
2017-03-31T05:14:57.255Z,0
2017-03-31T05:15:25.325Z,0
2017-03-31T05:15:54.267Z,0
2017-03-31T05:16:22.395Z,0
2017-03-31T05:16:50.554Z,0
2017-03-31T05:17:18.646Z,0
2017-03-31T05:17:47.704Z,0
2017-03-31T05:18:16.026Z,0
2017-03-31T05:18:44.939Z,0
2017-03-31T05:19:13.112Z,0
2017-03-31T05:19:41.392Z,0
2017-03-31T05:20:10.386Z,0
2017-03-31T05:20:38.698Z,0
2017-03-31T05:21:07.632Z,0
2017-03-31T05:21:35.699Z,0
2017-03-31T05:22:04.747Z,0
2017-03-31T05:22:32.860Z,0
2017-03-31T05:23:01.069Z,0
2017-03-31T05:23:30.171Z,0
2017-03-31T05:24:47.652Z,0
2017-03-31T05:25:15.838Z,0
2017-03-31T05:27:27.587Z,0
2017-03-31T05:27:55.854Z,0
2017-03-31T05:28:23.915Z,0
2017-03-31T05:28:52.879Z,0
2017-03-31T05:29:21.046Z,0
2017-03-31T05:29:50.109Z,0
2017-03-31T05:30:18.392Z,0
2017-03-31T05:30:46.353Z,0
2017-03-31T05:31:14.634Z,0
2017-03-31T05:31:42.741Z,0
2017-03-31T05:32:10.919Z,0
2017-03-31T05:32:39.847Z,0
2017-03-31T05:34:57.410Z,0
2017-03-31T05:35:25.640Z,0
2017-03-31T05:35:53.765Z,0
2017-03-31T05:36:22.768Z,0
2017-03-31T05:37:57.324Z,0
2017-03-31T05:38:25.494Z,0
2017-03-31T05:42:37.131Z,0
2017-03-31T05:43:05.193Z,0
2017-03-31T05:43:34.096Z,0
2017-03-31T05:44:02.391Z,0
2017-03-31T05:44:30.567Z,0
2017-03-31T05:44:59.425Z,0
2017-03-31T05:45:28.377Z,0
2017-03-31T05:45:57.387Z,0
2017-03-31T05:46:25.538Z,0
2017-03-31T05:46:54.472Z,0
2017-03-31T05:47:22.644Z,0
2017-03-31T05:51:56.985Z,0
2017-03-31T05:52:25.299Z,0
2017-03-31T05:52:53.459Z,0
2017-03-31T05:53:22.513Z,0
2017-03-31T05:55:56.893Z,0
2017-03-31T05:56:25.169Z,0
2017-03-31T05:56:53.166Z,0
2017-03-31T05:57:21.333Z,0
2017-03-31T05:57:49.610Z,0
2017-03-31T05:58:17.827Z,0
2017-03-31T05:58:46.592Z,0
2017-03-31T05:59:14.753Z,0
2017-03-31T05:59:43.859Z,0
2017-03-31T06:00:11.895Z,0
2017-03-31T06:00:40.135Z,0
2017-03-31T06:01:09.155Z,0
2017-03-31T06:01:37.974Z,0
2017-03-31T06:02:06.597Z,0
2017-03-31T06:02:34.804Z,0
2017-03-31T06:03:46.766Z,0
2017-03-31T06:04:14.904Z,0
2017-03-31T06:08:26.378Z,0
2017-03-31T06:08:54.457Z,0
2017-03-31T06:09:23.382Z,0
2017-03-31T06:10:46.567Z,0
2017-03-31T06:11:14.715Z,0
2017-03-31T06:13:26.432Z,0
2017-03-31T06:13:54.469Z,0
2017-03-31T06:15:06.313Z,0
2017-03-31T06:15:34.294Z,0
2017-03-31T06:16:03.191Z,0
2017-03-31T06:16:31.973Z,0
2017-03-31T06:17:00.010Z,0
2017-03-31T06:17:28.986Z,0
2017-03-31T06:17:57.227Z,0
2017-03-31T06:18:26.283Z,0
2017-03-31T06:18:54.566Z,0
2017-03-31T06:19:22.758Z,0
2017-03-31T06:19:51.758Z,0
2017-03-31T06:21:26.305Z,0
2017-03-31T06:21:54.506Z,0
2017-03-31T06:22:22.743Z,0
2017-03-31T06:22:51.751Z,0
2017-03-31T06:25:13.862Z,0
2017-03-31T06:25:42.766Z,0
2017-03-31T06:26:11.899Z,0
2017-03-31T06:26:40.049Z,0
2017-03-31T06:27:08.173Z,0
2017-03-31T06:27:37.121Z,0
2017-03-31T06:28:06.105Z,0
2017-03-31T06:28:34.352Z,0
2017-03-31T06:29:02.595Z,0
2017-03-31T06:29:31.485Z,0
2017-03-31T06:29:59.699Z,0
2017-03-31T06:30:28.715Z,0
2017-03-31T06:30:56.859Z,0
2017-03-31T06:31:25.971Z,0
2017-03-31T06:31:54.115Z,0
2017-03-31T06:33:05.972Z,0
2017-03-31T06:33:34.120Z,0
2017-03-31T06:36:45.921Z,0
2017-03-31T06:37:14.177Z,0
2017-03-31T06:37:42.357Z,0
2017-03-31T06:38:11.303Z,0
2017-03-31T06:38:39.463Z,0
2017-03-31T06:39:08.527Z,0
2017-03-31T06:39:36.667Z,0
2017-03-31T06:40:05.614Z,0
2017-03-31T06:40:33.789Z,0
2017-03-31T06:41:45.755Z,0
2017-03-31T06:42:13.997Z,0
2017-03-31T06:42:42.229Z,0
2017-03-31T06:43:11.243Z,0
2017-03-31T06:43:39.282Z,0
2017-03-31T06:44:08.213Z,0
2017-03-31T06:45:25.759Z,0
2017-03-31T06:45:53.912Z,0
2017-03-31T06:46:22.148Z,0
2017-03-31T06:47:56.744Z,0
2017-03-31T06:49:25.541Z,0
2017-03-31T06:49:53.667Z,0
2017-03-31T06:51:05.596Z,0
2017-03-31T06:51:33.751Z,0
2017-03-31T06:53:45.499Z,0
2017-03-31T06:54:13.836Z,0
2017-03-31T06:54:42.092Z,0
2017-03-31T06:55:10.929Z,0
2017-03-31T06:56:45.377Z,0
2017-03-31T06:57:13.456Z,0
2017-03-31T06:59:25.330Z,0
2017-03-31T06:59:53.638Z,0
2017-03-31T07:00:21.633Z,0
2017-03-31T07:00:49.834Z,0
2017-03-31T07:01:18.068Z,0
2017-03-31T07:02:51.836Z,0
2017-03-31T07:03:20.756Z,0
2017-03-31T07:03:48.813Z,0
2017-03-31T07:05:17.678Z,0
2017-03-31T07:07:35.206Z,0
2017-03-31T07:08:03.248Z,0
2017-03-31T07:10:15.101Z,0
2017-03-31T07:10:43.174Z,0
2017-03-31T07:11:11.997Z,0
2017-03-31T07:14:34.990Z,0
2017-03-31T07:15:03.297Z,0
2017-03-31T07:15:32.358Z,0
2017-03-31T07:16:00.445Z,0
2017-03-31T07:17:34.926Z,0
2017-03-31T07:18:02.974Z,0
2017-03-31T07:20:14.739Z,0
2017-03-31T07:20:42.983Z,0
2017-03-31T07:21:54.813Z,0
2017-03-31T07:22:22.958Z,0
2017-03-31T07:23:34.778Z,0
2017-03-31T07:24:02.767Z,0
2017-03-31T07:25:14.560Z,0
2017-03-31T07:25:42.790Z,0
2017-03-31T07:26:54.676Z,0
2017-03-31T07:27:22.726Z,0
2017-03-31T07:29:34.502Z,0
2017-03-31T07:30:02.688Z,0
2017-03-31T07:31:14.516Z,0
2017-03-31T07:31:42.681Z,0
2017-03-31T07:32:54.149Z,0
2017-03-31T07:33:22.429Z,0
2017-03-31T07:33:51.351Z,0
2017-03-31T07:35:14.502Z,0
2017-03-31T07:35:42.667Z,0
2017-03-31T07:38:54.298Z,0
2017-03-31T07:39:22.549Z,0
2017-03-31T07:41:34.216Z,0
2017-03-31T07:42:02.477Z,0
2017-03-31T07:45:14.137Z,0
2017-03-31T07:45:42.413Z,0
2017-03-31T07:46:54.181Z,0
2017-03-31T07:47:22.265Z,0
2017-03-31T07:49:34.181Z,0
2017-03-31T07:50:02.420Z,0
2017-03-31T07:51:30.947Z,0
2017-03-31T07:55:53.927Z,0
2017-03-31T07:56:22.191Z,0
2017-03-31T08:01:33.742Z,0
2017-03-31T08:02:02.014Z,0
2017-03-31T08:03:13.680Z,0
2017-03-31T08:03:41.936Z,0
2017-03-31T08:04:53.798Z,0
2017-03-31T08:05:21.971Z,0
2017-03-31T08:05:50.191Z,0
2017-03-31T08:06:19.206Z,0
2017-03-31T08:07:36.022Z,0
2017-03-31T08:08:04.928Z,0
2017-03-31T08:13:33.539Z,0
2017-03-31T08:14:01.855Z,0
2017-03-31T08:14:30.043Z,0
2017-03-31T08:14:58.961Z,0
2017-03-31T08:15:26.928Z,0
2017-03-31T08:15:55.923Z,0
2017-03-31T08:17:13.398Z,0
2017-03-31T08:17:41.554Z,0
2017-03-31T08:19:53.384Z,0
2017-03-31T08:20:21.617Z,0
2017-03-31T08:23:33.208Z,0
2017-03-31T08:24:01.239Z,0
2017-03-31T08:24:30.306Z,0
2017-03-31T08:24:58.573Z,0
2017-03-31T08:25:26.863Z,0
2017-03-31T08:25:55.789Z,0
2017-03-31T08:28:13.137Z,0
2017-03-31T08:28:41.354Z,0
2017-03-31T08:32:52.971Z,0
2017-03-31T08:33:21.084Z,0
2017-03-31T08:33:49.926Z,0
2017-03-31T08:34:18.978Z,0
2017-03-31T08:34:47.216Z,0
2017-03-31T08:36:15.176Z,0
2017-03-31T08:36:44.099Z,0
2017-03-31T08:37:13.009Z,0
2017-03-31T08:37:41.299Z,0
2017-03-31T08:38:09.295Z,0
2017-03-31T08:38:37.589Z,0
2017-03-31T08:39:05.734Z,0
2017-03-31T08:39:33.906Z,0
2017-03-31T08:40:02.892Z,0
2017-03-31T08:40:31.076Z,0
2017-03-31T08:42:42.822Z,0
2017-03-31T08:43:11.017Z,0
2017-03-31T08:45:22.732Z,0
2017-03-31T08:45:50.882Z,0
2017-03-31T08:49:02.695Z,0
2017-03-31T08:49:30.906Z,0
2017-03-31T08:49:59.130Z,0
2017-03-31T08:50:28.064Z,0
2017-03-31T08:52:02.570Z,0
2017-03-31T08:52:30.829Z,0
2017-03-31T08:52:59.019Z,0
2017-03-31T08:53:27.157Z,0
2017-03-31T08:53:55.375Z,0
2017-03-31T08:54:23.498Z,0
2017-03-31T08:54:52.408Z,0
2017-03-31T08:55:20.683Z,0
2017-03-31T08:58:32.475Z,0
2017-03-31T08:59:00.691Z,0
2017-03-31T08:59:29.660Z,0
2017-03-31T08:59:57.841Z,0
2017-03-31T09:01:32.419Z,0
2017-03-31T09:02:00.554Z,0
2017-03-31T09:05:12.372Z,0
2017-03-31T09:05:40.648Z,0
2017-03-31T09:06:08.859Z,0
2017-03-31T09:06:37.856Z,0
2017-03-31T09:08:00.138Z,5
2017-03-31T09:08:29.093Z,5
2017-03-31T09:10:52.061Z,10
2017-03-31T09:11:20.186Z,10
2017-03-31T09:12:32.071Z,10
2017-03-31T09:13:00.408Z,10
2017-03-31T09:13:28.343Z,15
2017-03-31T09:13:56.574Z,15
2017-03-31T09:14:24.573Z,15
2017-03-31T09:15:42.006Z,20
2017-03-31T09:16:10.180Z,20
2017-03-31T09:18:21.809Z,25
2017-03-31T09:18:49.961Z,25
2017-03-31T09:20:01.715Z,30
2017-03-31T09:20:29.951Z,35
2017-03-31T09:22:41.865Z,40
2017-03-31T09:23:10.023Z,40
2017-03-31T09:25:21.708Z,50
2017-03-31T09:25:49.767Z,55
2017-03-31T09:26:18.773Z,55
2017-03-31T09:26:47.012Z,60
2017-03-31T09:27:14.992Z,60
2017-03-31T09:28:43.208Z,70
2017-03-31T09:29:11.485Z,70
2017-03-31T09:29:39.578Z,75
2017-03-31T09:30:08.366Z,75
2017-03-31T09:31:31.479Z,75
2017-03-31T09:31:59.575Z,80
2017-03-31T09:32:28.431Z,80
2017-03-31T09:33:51.599Z,90
2017-03-31T09:34:19.736Z,90
2017-03-31T09:36:31.502Z,115
2017-03-31T09:36:59.624Z,130
2017-03-31T09:41:11.432Z,205
2017-03-31T09:41:39.656Z,210
2017-03-31T09:42:07.809Z,215
2017-03-31T09:42:36.723Z,220
2017-03-31T09:45:11.217Z,255
2017-03-31T09:45:39.416Z,260
2017-03-31T09:47:51.250Z,305
2017-03-31T09:48:19.496Z,325
2017-03-31T09:49:30.799Z,475
2017-03-31T09:49:59.119Z,575
2017-03-31T09:50:28.048Z,250
2017-03-31T09:52:51.164Z,180
2017-03-31T09:53:19.422Z,185
2017-03-31T09:53:47.558Z,175
2017-03-31T09:54:16.815Z,170
2017-03-31T09:54:45.029Z,170
2017-03-31T09:55:13.164Z,165
2017-03-31T09:55:41.309Z,165
2017-03-31T09:57:15.086Z,215
2017-03-31T09:57:44.116Z,205
2017-03-31T09:59:13.163Z,240
2017-03-31T09:59:41.290Z,240
2017-03-31T10:00:09.575Z,245
2017-03-31T10:00:38.604Z,265
2017-03-31T10:03:12.891Z,335
2017-03-31T10:03:40.983Z,360
2017-03-31T10:05:52.654Z,270
2017-03-31T10:06:20.717Z,260
2017-03-31T10:06:49.752Z,240
2017-03-31T10:11:12.630Z,265
2017-03-31T10:11:40.855Z,255
2017-03-31T10:13:52.664Z,255
2017-03-31T10:14:20.793Z,220
2017-03-31T10:15:32.141Z,255
2017-03-31T10:16:00.259Z,220
2017-03-31T10:16:29.204Z,250
2017-03-31T10:16:58.206Z,225
2017-03-31T10:18:32.440Z,220
2017-03-31T10:19:00.859Z,240
2017-03-31T10:19:29.114Z,275
2017-03-31T10:19:57.837Z,670
2017-03-31T10:20:26.061Z,350
2017-03-31T10:20:54.989Z,270
2017-03-31T10:22:12.448Z,1265
2017-03-31T10:22:40.451Z,315
2017-03-31T10:24:52.196Z,955
2017-03-31T10:25:20.591Z,1235
2017-03-31T10:26:54.250Z,1480
2017-03-31T10:27:22.431Z,1525
2017-03-31T10:27:50.677Z,1585
2017-03-31T10:28:18.742Z,1550
2017-03-31T10:28:46.688Z,1480
2017-03-31T10:29:14.821Z,1530
2017-03-31T10:29:43.856Z,1550
2017-03-31T10:30:12.138Z,1570
2017-03-31T10:30:40.334Z,1570
2017-03-31T10:31:52.203Z,1595
2017-03-31T10:32:20.388Z,335
2017-03-31T10:32:48.708Z,290
2017-03-31T10:33:17.798Z,295
2017-03-31T10:37:52.040Z,420
2017-03-31T10:38:20.244Z,545
2017-03-31T10:43:31.737Z,490
2017-03-31T10:43:59.821Z,470
2017-03-31T10:44:28.814Z,520
2017-03-31T10:44:56.968Z,1125
2017-03-31T10:45:25.156Z,475
2017-03-31T10:45:53.968Z,455
2017-03-31T10:46:22.124Z,430
2017-03-31T10:46:50.336Z,380
2017-03-31T10:47:18.454Z,395
2017-03-31T10:47:47.337Z,415
2017-03-31T10:51:21.865Z,310
2017-03-31T10:51:51.468Z,305
2017-03-31T10:52:19.810Z,315
2017-03-31T10:53:31.625Z,1120
2017-03-31T10:53:59.865Z,2080
2017-03-31T10:57:11.601Z,760
2017-03-31T10:57:39.975Z,525
2017-03-31T10:58:08.413Z,545
2017-03-31T10:59:31.560Z,465
2017-03-31T10:59:59.534Z,450
2017-03-31T11:01:11.453Z,500
2017-03-31T11:01:39.730Z,835
2017-03-31T11:02:08.104Z,455
2017-03-31T11:02:37.191Z,505
2017-03-31T11:03:05.494Z,735
2017-03-31T11:03:33.763Z,2195
2017-03-31T11:04:02.896Z,2120
2017-03-31T11:05:25.300Z,590
2017-03-31T11:05:53.546Z,675
2017-03-31T11:06:22.457Z,595
2017-03-31T11:08:51.188Z,2035
2017-03-31T11:09:19.402Z,1575
2017-03-31T11:12:31.302Z,485
2017-03-31T11:12:59.550Z,695
2017-03-31T11:13:27.664Z,685
2017-03-31T11:13:56.701Z,2120
2017-03-31T11:15:31.118Z,510
2017-03-31T11:15:59.348Z,365
2017-03-31T11:20:11.032Z,1230
2017-03-31T11:21:33.458Z,2450
2017-03-31T11:25:50.765Z,2690
2017-03-31T11:26:18.947Z,1835
2017-03-31T11:32:30.713Z,695
2017-03-31T11:32:58.994Z,685
2017-03-31T11:33:27.033Z,745
2017-03-31T11:33:56.027Z,830
2017-03-31T11:34:24.221Z,2470
2017-03-31T11:34:53.139Z,720
2017-03-31T11:38:10.443Z,3120
2017-03-31T11:38:38.648Z,845
2017-03-31T11:40:50.520Z,790
2017-03-31T11:42:12.793Z,2950
2017-03-31T11:42:41.716Z,2990
2017-03-31T11:46:10.373Z,2900
2017-03-31T11:46:38.516Z,2905
2017-03-31T11:47:49.953Z,3000
2017-03-31T11:48:18.052Z,3055
2017-03-31T11:48:46.990Z,3090
2017-03-31T11:49:15.908Z,3075
2017-03-31T11:51:50.211Z,1915
2017-03-31T11:52:18.472Z,1215
2017-03-31T11:52:46.625Z,1660
2017-03-31T11:53:15.643Z,1205
2017-03-31T11:54:50.101Z,740
2017-03-31T11:55:18.350Z,730
2017-03-31T11:59:30.012Z,615
2017-03-31T11:59:58.328Z,615
2017-03-31T12:03:09.951Z,670
2017-03-31T12:03:38.211Z,690
2017-03-31T12:04:06.353Z,695
2017-03-31T12:04:35.275Z,715
2017-03-31T12:05:03.464Z,735
2017-03-31T12:05:32.402Z,765
2017-03-31T12:06:49.973Z,855
2017-03-31T12:07:18.096Z,905
2017-03-31T12:12:23.223Z,765
2017-03-31T12:12:52.240Z,810
2017-03-31T12:16:09.563Z,3780
2017-03-31T12:16:37.748Z,990
2017-03-31T12:19:49.505Z,3785
2017-03-31T12:20:17.548Z,3675
2017-03-31T12:22:29.486Z,1215
2017-03-31T12:22:57.675Z,1585
2017-03-31T12:26:09.431Z,1240
2017-03-31T12:26:37.705Z,1950
2017-03-31T12:27:05.982Z,1300
2017-03-31T12:27:34.860Z,1260
2017-03-31T12:29:09.259Z,1040
2017-03-31T12:29:37.382Z,800
2017-03-31T12:30:49.254Z,1040
2017-03-31T12:31:17.306Z,2810
2017-03-31T12:32:29.220Z,895
2017-03-31T12:32:57.452Z,1305
2017-03-31T12:35:09.142Z,985
2017-03-31T12:35:37.331Z,2660
2017-03-31T12:38:49.080Z,1210
2017-03-31T12:39:17.352Z,1825
2017-03-31T12:39:45.597Z,1745
2017-03-31T12:40:14.519Z,1080
2017-03-31T12:41:49.010Z,710
2017-03-31T12:42:17.152Z,755
2017-03-31T12:44:28.957Z,745
2017-03-31T12:44:57.485Z,775
2017-03-31T12:45:25.699Z,830
2017-03-31T12:46:48.844Z,1055
2017-03-31T12:47:17.084Z,1085
2017-03-31T12:49:28.872Z,1155
2017-03-31T12:49:56.849Z,1645
2017-03-31T12:50:25.693Z,1490
2017-03-31T12:52:48.706Z,1160
2017-03-31T12:53:16.917Z,1165
2017-03-31T12:55:28.573Z,1430
2017-03-31T12:55:56.848Z,1115
2017-03-31T12:57:08.685Z,1375
2017-03-31T12:57:36.972Z,2125
2017-03-31T12:59:10.543Z,695
2017-03-31T12:59:38.592Z,715
2017-03-31T13:00:06.662Z,725
2017-03-31T13:01:18.496Z,935
2017-03-31T13:01:46.669Z,1015
2017-03-31T13:02:58.494Z,1455
2017-03-31T13:03:26.558Z,1075
2017-03-31T13:06:38.431Z,1440
2017-03-31T13:07:06.738Z,1610
2017-03-31T13:07:34.995Z,1040
2017-03-31T13:08:04.018Z,1915
2017-03-31T13:08:32.315Z,1005
2017-03-31T13:09:00.498Z,1010
2017-03-31T13:09:28.597Z,1745
2017-03-31T13:09:56.764Z,1035
2017-03-31T13:10:24.979Z,2335
2017-03-31T13:10:54.018Z,4255
2017-03-31T13:11:22.351Z,3900
2017-03-31T13:11:50.606Z,1895
2017-03-31T13:12:19.613Z,980
2017-03-31T13:12:47.860Z,880
2017-03-31T13:13:16.987Z,880
2017-03-31T13:13:45.133Z,800
2017-03-31T13:17:55.940Z,845
2017-03-31T13:18:25.052Z,865
2017-03-31T13:18:53.318Z,915
2017-03-31T13:19:21.606Z,935
2017-03-31T13:19:50.484Z,940
2017-03-31T13:22:08.078Z,1115
2017-03-31T13:22:36.234Z,1240
2017-03-31T13:24:48.004Z,1290
2017-03-31T13:25:16.258Z,1265
2017-03-31T13:25:44.531Z,1260
2017-03-31T13:26:13.407Z,1275
2017-03-31T13:26:41.459Z,1300
2017-03-31T13:27:10.472Z,1380
2017-03-31T13:30:27.397Z,1435
2017-03-31T13:30:55.809Z,1790
2017-03-31T13:32:07.723Z,1380
2017-03-31T13:32:36.299Z,1315
2017-03-31T13:33:04.546Z,1280
2017-03-31T13:34:27.759Z,1170
2017-03-31T13:37:07.711Z,1380
2017-03-31T13:37:35.804Z,2345
2017-03-31T13:40:47.591Z,1335
2017-03-31T13:41:15.733Z,1345
2017-03-31T13:43:27.480Z,1495
2017-03-31T13:43:55.705Z,1235
2017-03-31T13:45:07.060Z,975
2017-03-31T13:45:35.302Z,945
2017-03-31T13:46:04.339Z,1000
2017-03-31T13:52:27.337Z,1040
2017-03-31T13:52:55.498Z,970
2017-03-31T13:54:55.085Z,695
2017-03-31T13:55:24.201Z,695
2017-03-31T13:55:52.356Z,705
2017-03-31T13:56:20.523Z,730
2017-03-31T13:56:49.589Z,760
2017-03-31T13:58:07.130Z,840
2017-03-31T13:58:35.219Z,870
2017-03-31T13:59:47.099Z,890
2017-03-31T14:00:15.364Z,910
2017-03-31T14:03:26.942Z,1000
2017-03-31T14:03:55.148Z,1030
2017-03-31T14:07:06.858Z,1125
2017-03-31T14:07:35.044Z,2675
2017-03-31T14:08:46.874Z,3925
2017-03-31T14:09:15.181Z,3745
2017-03-31T14:09:43.270Z,4000
2017-03-31T14:10:11.361Z,2400
2017-03-31T14:10:39.554Z,1670
2017-03-31T14:11:07.894Z,3240
2017-03-31T14:13:24.527Z,2415
2017-03-31T14:13:53.497Z,3355
2017-03-31T14:14:22.334Z,3850
2017-03-31T14:15:56.648Z,3075
2017-03-31T14:16:24.655Z,3755
2017-03-31T14:16:53.483Z,3840
2017-03-31T14:18:16.712Z,2760
2017-03-31T14:18:45.050Z,3115
2017-03-31T14:19:13.281Z,3430
2017-03-31T14:19:42.306Z,1980
2017-03-31T14:21:16.148Z,1770
2017-03-31T14:21:44.163Z,1770
2017-03-31T14:23:16.070Z,1390
2017-03-31T14:23:44.231Z,1345
2017-03-31T14:24:12.370Z,1325
2017-03-31T14:25:46.483Z,1225
2017-03-31T14:26:14.964Z,1160
2017-03-31T14:26:43.225Z,1130
2017-03-31T14:29:06.381Z,1095
2017-03-31T14:29:34.650Z,1070
2017-03-31T14:33:46.281Z,745
2017-03-31T14:34:14.469Z,730
2017-03-31T14:36:26.329Z,675